createdAt,value
2023-05-14T08:03:52.514Z,1711.3344481605352
2023-05-14T08:08:55.684Z,1791.0
2023-05-14T08:08:57.402Z,1821.0
2023-05-14T08:08:59.212Z,1695.0
2023-05-14T08:09:01.109Z,1755.0
2023-05-14T08:09:02.918Z,1680.0
2023-05-14T08:09:04.639Z,1731.0
2023-05-14T08:09:57.265Z,2100.0
2023-05-14T08:09:58.865Z,2001.0
2023-05-14T08:25:21.270Z,1600.7558528428094
2023-05-14T08:31:46.141Z,1612.0535117056857
2023-05-14T08:38:08.276Z,1618.715719063545
2023-05-14T08:44:30.548Z,1621.5351170568563
2023-05-14T08:51:48.660Z,1556.9498327759197
2023-05-14T08:58:11.790Z,1572.6822742474917
2023-05-14T09:04:33.609Z,1542.2709030100334
2023-05-14T09:11:02.287Z,1592.9297658862877
2023-05-14T09:17:25.990Z,1490.8795986622074
2023-05-14T09:23:50.997Z,1530.5217391304348
2023-05-14T09:32:59.009Z,1502.9498327759197
2023-05-14T09:39:24.633Z,1562.0969899665552
2023-05-14T09:45:47.017Z,1549.2040133779265
2023-05-14T09:52:07.780Z,1521.2909698996655
2023-05-14T09:58:29.453Z,1485.7826086956522
2023-05-14T10:04:51.447Z,1489.2943143812709
2023-05-14T10:11:42.683Z,1528.3946488294314
2023-05-14T10:21:11.342Z,1508.3377926421404
2023-05-14T10:33:10.751Z,1589.7391304347825
2023-05-14T18:20:25.642Z,1764.1304347826087
2023-05-14T18:27:46.102Z,1730.1371237458195
2023-05-14T18:35:20.596Z,1912.8461538461538
2023-05-14T18:41:44.136Z,1995.38127090301
2023-05-14T18:48:09.945Z,1921.876254180602
2023-05-14T18:56:02.052Z,1811.9498327759197
2023-05-14T19:02:29.199Z,1856.9498327759197
2023-05-14T19:12:03.863Z,1878.9832775919733
2023-05-14T19:18:33.215Z,1851.4515050167224
2023-05-14T19:25:11.765Z,1984.2943143812709
2023-05-14T19:31:38.140Z,1972.314381270903
2023-05-14T19:37:58.974Z,1928.1872909698998
2023-05-14T19:44:20.871Z,1958.608695652174
2023-05-14T19:51:45.844Z,1992.2508361204013
2023-05-14T19:58:08.505Z,1964.468227424749
2023-05-14T20:04:29.826Z,1959.1103678929767
2023-05-14T20:12:55.312Z,2049.0903010033444
2023-05-14T20:24:30.422Z,2224.0535117056857
2023-05-14T20:36:31.343Z,2147.769230769231
2023-05-14T21:07:07.425Z,2118.9933110367892
2023-05-14T21:13:25.930Z,2047.2742474916388
2023-05-14T21:19:44.149Z,2025.3411371237457
2023-05-14T21:28:54.159Z,1968.3411371237457
2023-05-14T21:35:39.580Z,2021.257525083612
2023-05-14T21:41:58.005Z,2000.5484949832776
2023-05-14T21:50:40.867Z,2042.608695652174
2023-05-14T21:57:00.391Z,2150.488294314381
2023-05-14T22:03:19.863Z,2238.9632107023413
2023-05-14T22:16:09.292Z,2121.4715719063547
2023-05-14T22:27:47.364Z,2198.3879598662206
2023-05-14T22:43:15.509Z,2261.7090301003345
2023-05-14T22:54:22.340Z,2229.0200668896323
2023-05-14T23:06:30.179Z,2215.5652173913045
2023-05-14T23:15:28.222Z,2269.816053511706
2023-05-14T23:24:53.584Z,2272.846153846154
2023-05-14T23:31:12.714Z,2247.903010033445
2023-05-14T23:37:30.679Z,2331.040133779264
2023-05-14T23:48:22.356Z,2372.3979933110368
2023-05-14T23:54:40.834Z,2424.5016722408027
